AirNav   Pilot Hours Calculator
 
 949 users online  

VA06 Deer Run Airport
Floyd, Virginia, USA

GOING TO FLOYD?


FAA INFORMATION EFFECTIVE 07 NOVEMBER 2019

Location

FAA Identifier: VA06
Lat/Long: 36-59-39.4650N 080-27-16.1870W
36-59.657750N 080-27.269783W
36.9942958,-80.4544964
(estimated)
Elevation: 2400 ft. / 732 m (estimated)
Variation: 06W (1985)
From city: 8 miles SE of FLOYD, VA
Time zone: UTC -5 (UTC -4 during Daylight Saving Time)
Zip code: 24149

Airport Operations

Airport use: Private use. Permission required prior to landing
Activation date: 09/1988
Control tower: no
ARTCC: WASHINGTON CENTER
FSS: LEESBURG FLIGHT SERVICE STATION
Attendance: UNATNDD
Wind indicator: yes
Segmented circle: no

Airport Communications

WX AWOS-3 at BCB (13 nm N): 133.325 (540-231-4837)
WX AWOS-3 at PSK (14 nm NW): 127.375 (540-674-2731)

Nearby radio navigation aids

VOR radial/distance  VOR name  Freq  Var
PSKr120/13.6PULASKI VORTAC116.8006W
ROAr225/27.9ROANOKE VOR/DME109.4004W
ODRr237/(30.1)WOODRUM VOR114.9008W

 
NDB name  Hdg/Dist  Freq  Var  ID
TECH197/13.136806WTEC - . -.-.
VINTON253/30.227708WVIT ...- .. -

Airport Services

Runway Information

Runway 9/27

Dimensions: 2300 x 60 ft. / 701 x 18 m
Surface: turf
RUNWAY 9  RUNWAY 27
Traffic pattern: leftleft
Displaced threshold: no250 ft.
Obstructions: noneroad

Airport Ownership and Management from official FAA records

Ownership: Privately-owned
Owner: MARK J. PRICE
RT 1, BOX 609
RINER, VA 24149
Phone 703-763-3636
Manager: MARK J. PRICE
RT 1, BOX 609
RINER, VA 24149
Phone 703-763-3636

Airport Operational Statistics

Aircraft based on the field: 2
Single engine airplanes: 2
    

Additional Remarks

FOR CD CTC WASHINGTON ARTCC AT 703-771-3587.

Instrument Procedures

There are no published instrument procedures at VA06.

Some nearby airports with instrument procedures:

KBCB - Virginia Tech/Montgomery Executive Airport (13 nm N)
KPSK - New River Valley Airport (14 nm NW)
KHLX - Twin County Airport (22 nm SW)
KMTV - Blue Ridge Airport (30 nm SE)
KROA - Roanoke-Blacksburg Regional Airport/Woodrum Field (30 nm NE)
 
Loc | Ops | Rwys | IFR | FBO | Links
Com | Nav | Svcs | Stats | Notes
Area around VA06 (Deer Run Airport)
 
Road maps at: MapQuest Bing Google
 
Aerial photo
No photo
 
Sectional chart

 
Airport distance calculator
Flying to Deer Run Airport? Find the distance to fly.

From to VA06

Sunrise and sunset
Times for 21-Nov-2019
 Local
(UTC-5)
 Zulu
(UTC)
Morning civil twilight06:4011:40
Sunrise07:0812:08
Sunset17:0822:08
Evening civil twilight17:3622:36

Current date and time
Zulu (UTC)  22-Nov-2019 03:21:25
Local (UTC-5)  21-Nov-2019 22:21:25
 
METAR
KPSK 
13nm NW 
220255Z AUTO 23007KT 10SM BKN060 BKN075 OVC085 09/05 A3012 RMK AO2 T00930047
KBCB 
13nm N 
220255Z AUTO 00000KT 10SM BKN060 BKN075 OVC080 07/05 A3014 RMK AO2 T00650048
KHLX 
22nm SW 
220255Z AUTO 17004KT 10SM CLR 07/04 A3011 RMK AO2 T00700037
TAF
KBCB 
13nm N 
211741Z 2118/2218 29003KT P6SM SKC FM220000 VRB03KT P6SM SCT080 FM220600 25005KT P6SM SCT028 FM221100 26007KT 6SM -SHRA OVC028 FM221300 27008KT 4SM -RA OVC012 FM221500 28008KT 6SM -RA BR OVC009
NOTAMs
Click for the latest NOTAMs
NOTAMs are issued by the DoD/FAA and will open in a separate window not controlled by AirNav.

 

 
 

Would you like to see your business listed on this page?

 If your business provides an interesting product or service to pilots, flight crews, aircraft, or users of the Deer Run Airport, you should consider listing it here.  To start the listing process, click on the button below
 
Add a business
 

Other Pages about Deer Run Airport

Update a link
 
Copyright © AirNav, LLC. All rights reserved. Privacy Policy  Contact